Time;durP1;ratioP1;P1;durP2;ratioP2;P2;SDS_P1;SDS_P2;PMS_P1;PMS_P2;Temp;Humidity;BMP_temperature;BMP_pressure;BME280_temperature;BME280_humidity;BME280_pressure;Samples;Min_cycle;Max_cycle;Signal;HPM_P1;HPM_P2
2022/01/08 00:02:13;;;;;;;18.38;9.77;;;3.70;99.90;;;;;;5063238;28;20089;-64
2022/01/08 00:04:38;;;;;;;18.92;9.18;;;3.80;99.90;;;;;;5080351;28;20040;-65
2022/01/08 00:07:04;;;;;;;20.27;9.23;;;3.90;99.90;;;;;;5062997;28;20029;-64
2022/01/08 00:09:30;;;;;;;22.85;9.32;;;3.90;99.90;;;;;;5079874;28;20059;-64
2022/01/08 00:11:56;;;;;;;19.48;8.10;;;3.90;99.90;;;;;;5079513;28;20032;-64
2022/01/08 00:14:24;;;;;;;18.13;8.32;;;3.90;99.90;;;;;;5080550;28;20037;-64
2022/01/08 00:16:51;;;;;;;12.88;7.85;;;3.80;99.90;;;;;;5079770;28;20330;-64
2022/01/08 00:19:17;;;;;;;14.35;7.38;;;3.80;99.90;;;;;;5080096;28;20032;-64
2022/01/08 00:21:43;;;;;;;11.70;7.97;;;3.80;99.90;;;;;;5080078;28;20123;-63
2022/01/08 00:24:09;;;;;;;17.92;7.43;;;3.60;99.90;;;;;;5079264;28;20423;-64
2022/01/08 00:26:35;;;;;;;15.68;7.90;;;3.50;99.90;;;;;;5080025;28;20348;-63
2022/01/08 00:29:01;;;;;;;16.90;7.60;;;3.50;99.90;;;;;;5062533;28;20119;-64
2022/01/08 00:31:26;;;;;;;14.82;7.07;;;3.50;99.90;;;;;;5079557;28;20028;-64
2022/01/08 00:33:53;;;;;;;12.90;7.68;;;3.50;99.90;;;;;;5080259;28;20040;-64
2022/01/08 00:36:19;;;;;;;17.27;8.25;;;3.50;99.90;;;;;;5080419;28;20033;-64
2022/01/08 00:38:45;;;;;;;14.77;7.57;;;3.50;99.90;;;;;;5062362;28;20040;-64
2022/01/08 00:41:11;;;;;;;17.27;8.27;;;3.40;99.90;;;;;;5080363;28;20037;-63
2022/01/08 00:43:37;;;;;;;15.43;7.18;;;3.40;99.90;;;;;;5078798;28;20032;-64
2022/01/08 00:46:03;;;;;;;14.90;6.70;;;3.50;99.90;;;;;;5079710;28;20082;-63
2022/01/08 00:48:29;;;;;;;13.52;6.63;;;3.40;99.90;;;;;;5062284;28;20032;-64
2022/01/08 00:50:55;;;;;;;18.42;6.95;;;3.50;99.90;;;;;;5079617;28;20033;-65
2022/01/08 00:53:20;;;;;;;17.85;7.00;;;3.50;99.90;;;;;;5062155;28;20032;-63
2022/01/08 00:55:47;;;;;;;14.75;6.57;;;3.50;99.90;;;;;;5078346;28;20036;-64
2022/01/08 00:58:13;;;;;;;10.63;6.10;;;3.60;99.90;;;;;;5079409;28;20033;-64
2022/01/08 01:00:41;;;;;;;20.17;6.68;;;3.60;99.90;;;;;;5079374;28;20093;-64
2022/01/08 01:03:08;;;;;;;13.90;5.65;;;3.60;99.90;;;;;;5079266;28;20110;-64
2022/01/08 01:05:34;;;;;;;10.77;5.28;;;3.60;99.90;;;;;;5079317;28;20074;-64
2022/01/08 01:08:00;;;;;;;12.60;5.35;;;3.70;99.90;;;;;;5079287;28;20040;-65
2022/01/08 01:10:26;;;;;;;12.32;5.10;;;3.60;99.90;;;;;;5079241;28;20024;-64
2022/01/08 01:12:51;;;;;;;11.32;4.43;;;3.60;99.90;;;;;;5078412;28;20396;-63
2022/01/08 01:15:18;;;;;;;6.43;3.63;;;3.50;99.90;;;;;;5078413;28;20036;-62
2022/01/08 01:17:45;;;;;;;10.43;3.50;;;3.40;99.90;;;;;;5079112;28;20101;-63
2022/01/08 01:20:14;;;;;;;5.60;3.38;;;3.40;99.90;;;;;;5079005;28;20035;-63
2022/01/08 01:23:30;;;;;;;10.07;3.58;;;3.50;99.90;;;;;;5078924;28;20107;-63
2022/01/08 01:25:35;;;;;;;6.68;3.17;;;3.40;99.90;;;;;;5071782;28;20320;-63
2022/01/08 01:28:24;;;;;;;10.02;3.20;;;3.40;99.90;;;;;;5078205;28;20123;-63
2022/01/08 01:41:10;;;;;;;7.35;2.70;;;3.40;99.90;;;;;;5078137;28;20040;-63
2022/01/08 01:47:13;;;;;;;7.22;2.65;;;3.30;99.90;;;;;;5078520;28;20039;-63
2022/01/08 01:49:43;;;;;;;10.48;3.20;;;3.30;99.90;;;;;;5077761;28;20025;-63
2022/01/08 01:52:11;;;;;;;6.30;2.80;;;3.20;99.90;;;;;;5077658;28;20032;-63
2022/01/08 01:54:37;;;;;;;6.70;2.90;;;3.20;99.90;;;;;;5078333;28;20025;-63
2022/01/08 01:57:05;;;;;;;7.22;2.55;;;3.10;99.90;;;;;;5078799;28;20028;-62
2022/01/08 01:59:33;;;;;;;10.20;3.15;;;3.00;99.90;;;;;;5078198;28;20116;-63
2022/01/08 02:01:59;;;;;;;11.02;3.33;;;3.00;99.90;;;;;;5061070;28;20411;-64
2022/01/08 02:04:26;;;;;;;8.18;3.17;;;3.10;99.90;;;;;;5078070;28;20362;-63
2022/01/08 02:06:52;;;;;;;9.90;3.00;;;3.20;99.90;;;;;;5077337;28;20280;-63
2022/01/08 02:09:18;;;;;;;9.55;3.45;;;3.00;99.90;;;;;;5077339;28;20036;-65
2022/01/08 02:12:03;;;;;;;7.10;3.22;;;2.90;99.90;;;;;;5078049;28;20024;-64
2022/01/08 02:14:31;;;;;;;8.60;2.90;;;2.80;99.90;;;;;;5077869;28;20056;-63
2022/01/08 02:16:58;;;;;;;7.30;3.42;;;2.80;99.90;;;;;;5078462;28;20043;-62
2022/01/08 02:19:25;;;;;;;8.70;3.70;;;2.90;99.90;;;;;;5077577;28;20127;-62
2022/01/08 02:21:53;;;;;;;10.07;3.38;;;3.00;99.90;;;;;;5077784;28;20303;-63
2022/01/08 02:24:19;;;;;;;7.10;3.65;;;3.00;99.90;;;;;;5077557;28;20051;-65
2022/01/08 02:26:46;;;;;;;9.15;4.07;;;3.10;99.90;;;;;;5077667;28;20035;-63
2022/01/08 02:29:13;;;;;;;9.80;3.88;;;3.10;99.90;;;;;;5077604;28;20028;-63
2022/01/08 02:31:39;;;;;;;8.85;3.50;;;3.30;99.90;;;;;;5076763;28;20396;-63
2022/01/08 02:34:06;;;;;;;9.38;3.90;;;3.20;99.90;;;;;;5077566;28;20024;-63
2022/01/08 02:36:33;;;;;;;10.00;3.53;;;3.20;99.90;;;;;;5077384;28;20038;-63
2022/01/08 02:38:59;;;;;;;7.40;3.90;;;3.20;99.90;;;;;;5076755;28;20124;-64
2022/01/08 02:41:27;;;;;;;11.50;4.20;;;3.20;99.90;;;;;;5077462;28;20116;-63
2022/01/08 02:43:53;;;;;;;13.38;4.28;;;3.20;99.90;;;;;;5076623;28;20032;-63
2022/01/08 02:46:22;;;;;;;11.30;4.22;;;3.20;99.90;;;;;;5077344;28;20058;-64
2022/01/08 02:48:49;;;;;;;8.35;4.20;;;3.20;99.90;;;;;;5059955;28;20043;-63
2022/01/08 02:51:15;;;;;;;8.27;4.50;;;3.10;99.90;;;;;;5077276;28;20036;-63
2022/01/08 02:53:40;;;;;;;9.38;4.53;;;3.00;99.90;;;;;;5076524;28;20459;-63
2022/01/08 02:56:06;;;;;;;9.57;4.18;;;3.00;99.90;;;;;;5077227;28;20024;-63
2022/01/08 02:58:32;;;;;;;8.07;3.92;;;2.90;99.90;;;;;;5076455;28;20024;-63
2022/01/08 03:00:58;;;;;;;9.40;4.30;;;2.80;99.90;;;;;;5076515;28;20051;-63
2022/01/08 03:03:24;;;;;;;14.98;4.82;;;2.80;99.90;;;;;;5077045;28;20069;-63
2022/01/08 03:05:50;;;;;;;12.05;4.22;;;2.90;99.90;;;;;;5077107;28;20020;-63
2022/01/08 03:08:16;;;;;;;10.65;4.35;;;2.90;99.90;;;;;;5077246;28;20024;-63
2022/01/08 03:10:42;;;;;;;11.18;4.25;;;2.90;99.90;;;;;;5077092;28;20024;-64
2022/01/08 03:13:08;;;;;;;8.07;4.75;;;2.70;99.90;;;;;;5059629;28;20028;-63
2022/01/08 03:15:36;;;;;;;10.25;4.50;;;2.70;99.90;;;;;;5042984;28;20111;-62
2022/01/08 03:18:04;;;;;;;8.65;4.15;;;2.70;99.90;;;;;;5076833;28;20029;-63
2022/01/08 03:20:30;;;;;;;14.40;4.57;;;2.60;99.90;;;;;;5059758;28;20053;-63
2022/01/08 03:23:02;;;;;;;10.90;4.50;;;2.50;99.90;;;;;;5076104;28;20381;-63
2022/01/08 03:25:29;;;;;;;11.98;5.15;;;2.60;99.90;;;;;;5076413;28;20056;-65
2022/01/08 03:27:56;;;;;;;11.48;4.72;;;2.70;99.90;;;;;;5076840;28;20082;-64
2022/01/08 03:30:24;;;;;;;11.88;5.13;;;2.80;99.90;;;;;;5076348;28;20029;-64
2022/01/08 03:32:52;;;;;;;9.57;4.85;;;2.90;99.90;;;;;;5076810;28;20029;-63
2022/01/08 03:35:18;;;;;;;12.63;4.85;;;2.90;99.90;;;;;;5076802;28;20037;-64
2022/01/08 03:37:44;;;;;;;9.77;5.30;;;2.80;99.90;;;;;;5076599;28;20052;-64
2022/01/08 03:40:10;;;;;;;12.60;4.45;;;2.90;99.90;;;;;;5076716;28;20039;-63
2022/01/08 03:42:36;;;;;;;13.60;4.78;;;2.90;99.90;;;;;;5076705;28;20041;-63
2022/01/08 03:45:02;;;;;;;8.25;4.60;;;2.90;99.90;;;;;;5059113;28;20277;-64
2022/01/08 03:49:55;;;;;;;9.52;4.75;;;2.70;99.90;;;;;;5076785;28;20037;-63
2022/01/08 03:52:21;;;;;;;11.18;4.60;;;2.60;99.90;;;;;;5076705;28;20100;-63
2022/01/08 03:54:47;;;;;;;15.90;4.70;;;2.60;99.90;;;;;;5059263;28;20114;-63
2022/01/08 03:57:13;;;;;;;10.90;4.47;;;2.60;99.90;;;;;;5076400;28;20116;-64
2022/01/08 03:59:39;;;;;;;13.75;4.72;;;2.50;99.90;;;;;;5076987;28;20131;-63
2022/01/08 04:02:05;;;;;;;11.00;4.60;;;2.50;99.90;;;;;;5077071;28;20264;-63
2022/01/08 04:04:31;;;;;;;11.18;4.25;;;2.50;99.90;;;;;;5075782;28;20048;-64
2022/01/08 04:06:57;;;;;;;10.73;4.00;;;2.40;99.90;;;;;;5075700;28;20041;-64
2022/01/08 04:09:23;;;;;;;8.50;4.35;;;2.30;99.90;;;;;;5075682;28;20304;-64
2022/01/08 04:11:51;;;;;;;8.88;4.03;;;2.30;99.90;;;;;;5076455;28;20067;-63
2022/01/08 04:14:18;;;;;;;9.43;4.15;;;2.20;99.90;;;;;;5076418;28;20308;-64
2022/01/08 04:16:48;;;;;;;8.35;4.20;;;2.10;99.90;;;;;;5076468;28;20396;-64
2022/01/08 04:19:13;;;;;;;10.85;4.13;;;2.10;99.90;;;;;;5075673;28;20033;-64
2022/01/08 04:24:24;;;;;;;9.50;4.20;;;2.00;99.90;;;;;;5075488;28;20400;-64
2022/01/08 04:26:50;;;;;;;11.95;3.97;;;2.00;99.90;;;;;;5076225;28;20024;-64
2022/01/08 04:29:16;;;;;;;10.07;4.65;;;2.00;99.90;;;;;;5076314;28;20048;-64
2022/01/08 04:31:42;;;;;;;6.18;3.95;;;2.00;99.90;;;;;;5079183;28;20410;-64
2022/01/08 04:34:08;;;;;;;7.63;4.38;;;2.00;99.90;;;;;;5079806;28;20024;-64
2022/01/08 04:36:33;;;;;;;11.48;4.65;;;2.10;99.90;;;;;;5062381;28;20028;-65
2022/01/08 04:38:59;;;;;;;13.35;4.88;;;2.10;99.90;;;;;;5079879;28;20056;-64
2022/01/08 04:41:25;;;;;;;13.35;5.03;;;2.10;99.90;;;;;;5079815;28;20116;-64
2022/01/08 04:43:51;;;;;;;12.75;4.90;;;2.20;99.90;;;;;;5079761;28;20426;-65
2022/01/08 04:46:17;;;;;;;9.52;4.07;;;2.20;99.90;;;;;;5078884;28;20039;-64
2022/01/08 04:48:43;;;;;;;9.45;4.75;;;2.10;99.90;;;;;;5079597;28;20020;-64
2022/01/08 04:51:09;;;;;;;10.45;4.40;;;2.20;99.90;;;;;;5078846;28;20032;-64
2022/01/08 04:53:35;;;;;;;10.48;4.47;;;2.20;99.90;;;;;;5079519;28;20028;-64
2022/01/08 04:56:01;;;;;;;11.02;4.32;;;2.20;99.90;;;;;;5078873;28;20032;-64
2022/01/08 04:58:28;;;;;;;8.40;4.30;;;2.30;99.90;;;;;;5079422;28;20032;-64
2022/01/08 05:00:54;;;;;;;11.10;4.15;;;2.30;99.90;;;;;;5078708;28;20067;-65
2022/01/08 05:03:20;;;;;;;13.40;4.13;;;2.30;99.90;;;;;;5079405;28;20028;-65
2022/01/08 05:05:46;;;;;;;10.85;4.13;;;2.40;99.90;;;;;;5079250;28;20020;-64
2022/01/08 05:08:12;;;;;;;10.18;3.92;;;2.40;99.90;;;;;;5079193;28;20060;-64
2022/01/08 05:10:38;;;;;;;8.77;3.78;;;2.40;99.90;;;;;;5079487;28;20396;-64
2022/01/08 05:13:05;;;;;;;8.65;3.58;;;2.40;99.90;;;;;;5078409;28;20296;-65
2022/01/08 05:15:35;;;;;;;9.20;3.90;;;2.40;99.90;;;;;;5079159;28;20027;-64
2022/01/08 05:18:04;;;;;;;9.85;3.90;;;2.40;99.90;;;;;;5079047;28;20093;-64
2022/01/08 05:20:33;;;;;;;11.27;3.70;;;2.50;99.90;;;;;;5078354;28;20040;-64
2022/01/08 05:23:03;;;;;;;11.23;4.28;;;2.40;99.90;;;;;;5078929;28;20048;-65
2022/01/08 05:25:30;;;;;;;10.68;4.05;;;2.50;99.90;;;;;;5061983;28;20359;-64
2022/01/08 05:27:57;;;;;;;9.70;3.85;;;2.40;99.90;;;;;;5061425;28;20020;-64
2022/01/08 05:30:24;;;;;;;13.07;4.15;;;2.40;99.90;;;;;;5079006;28;20025;-64
2022/01/08 05:32:50;;;;;;;7.93;4.05;;;2.40;99.90;;;;;;5078075;28;20055;-64
2022/01/08 05:35:17;;;;;;;7.63;3.92;;;2.40;99.90;;;;;;5078729;28;20021;-64
2022/01/08 05:37:43;;;;;;;12.88;4.50;;;2.40;99.90;;;;;;5078514;28;20139;-64
2022/01/08 05:40:10;;;;;;;14.13;4.72;;;2.50;99.90;;;;;;5077888;28;20078;-64
2022/01/08 05:42:36;;;;;;;11.65;5.13;;;2.40;99.90;;;;;;5077411;28;20040;-64
2022/01/08 05:45:03;;;;;;;10.10;5.07;;;2.40;99.90;;;;;;5078200;28;20377;-64
2022/01/08 05:47:31;;;;;;;8.98;4.88;;;2.30;99.90;;;;;;5077737;28;20353;-64
2022/01/08 05:49:57;;;;;;;10.05;5.75;;;2.30;99.90;;;;;;5078176;28;20028;-64
2022/01/08 05:52:23;;;;;;;11.13;5.55;;;2.40;99.90;;;;;;5078418;28;20514;-64
2022/01/08 05:54:49;;;;;;;16.58;6.05;;;2.30;99.90;;;;;;5077601;28;20434;-64
2022/01/08 05:57:15;;;;;;;11.38;6.15;;;2.30;99.90;;;;;;5078324;28;20115;-64
2022/01/08 05:59:41;;;;;;;12.15;6.22;;;2.30;99.90;;;;;;5078756;28;20095;-64
2022/01/08 06:02:10;;;;;;;16.23;6.45;;;2.40;99.90;;;;;;5078227;28;20021;-64
2022/01/08 06:04:36;;;;;;;14.13;7.25;;;2.30;99.90;;;;;;5078097;28;20305;-64
2022/01/08 06:07:03;;;;;;;15.38;6.75;;;2.40;99.90;;;;;;5078151;28;20117;-64
2022/01/08 06:09:29;;;;;;;13.13;7.47;;;2.40;99.90;;;;;;5077416;28;20071;-64
2022/01/08 06:11:54;;;;;;;19.02;8.27;;;2.40;99.90;;;;;;5078063;28;20063;-64
2022/01/08 06:14:20;;;;;;;12.63;8.25;;;2.40;99.90;;;;;;5078009;28;20033;-64
2022/01/08 06:16:48;;;;;;;16.08;8.82;;;2.50;99.90;;;;;;5077985;28;20033;-64
2022/01/08 06:19:14;;;;;;;17.98;8.88;;;2.50;99.90;;;;;;5077901;28;20319;-64
2022/01/08 06:21:40;;;;;;;19.55;9.00;;;2.50;99.90;;;;;;5077138;28;20308;-64
2022/01/08 06:24:06;;;;;;;15.40;9.23;;;2.40;99.90;;;;;;5077804;28;20029;-64
2022/01/08 06:26:33;;;;;;;20.27;9.75;;;2.40;99.90;;;;;;5077758;28;20047;-64
2022/01/08 06:28:59;;;;;;;22.25;10.82;;;2.40;99.90;;;;;;5077531;28;20028;-64
2022/01/08 06:31:25;;;;;;;20.08;10.20;;;2.30;99.90;;;;;;5077029;28;20044;-64
2022/01/08 06:33:52;;;;;;;19.88;11.05;;;2.30;99.90;;;;;;5076863;28;20032;-64
2022/01/08 06:36:18;;;;;;;22.00;11.70;;;2.20;99.90;;;;;;5076760;28;20025;-64
2022/01/08 06:38:46;;;;;;;21.17;11.88;;;2.30;99.90;;;;;;5077372;28;20044;-64
2022/01/08 06:41:12;;;;;;;25.17;11.95;;;2.30;99.90;;;;;;5077477;28;20043;-64
2022/01/08 06:43:38;;;;;;;20.70;11.90;;;2.30;99.90;;;;;;5076583;28;20079;-64
2022/01/08 06:46:04;;;;;;;21.02;12.05;;;2.30;99.90;;;;;;5076779;28;20044;-64
2022/01/08 06:48:30;;;;;;;22.65;12.93;;;2.30;99.90;;;;;;5077393;28;20025;-64
2022/01/08 06:50:55;;;;;;;21.60;12.88;;;2.30;99.90;;;;;;5077571;28;20028;-64
2022/01/08 06:53:21;;;;;;;22.15;13.32;;;2.30;99.90;;;;;;5076193;28;20029;-64
2022/01/08 06:55:47;;;;;;;19.05;12.65;;;2.40;99.90;;;;;;5077207;28;20086;-64
2022/01/08 06:58:13;;;;;;;23.35;13.75;;;2.40;99.90;;;;;;5077186;28;20021;-64
2022/01/08 07:00:39;;;;;;;23.38;13.50;;;2.40;99.90;;;;;;5077176;28;20028;-64
2022/01/08 07:03:09;;;;;;;22.10;13.88;;;2.40;99.90;;;;;;5077404;28;20039;-64
2022/01/08 07:05:36;;;;;;;23.58;13.60;;;2.40;99.90;;;;;;5076501;28;20041;-64
2022/01/08 07:08:06;;;;;;;27.98;13.85;;;2.50;99.90;;;;;;5077113;28;20392;-63
2022/01/08 07:10:32;;;;;;;24.08;13.50;;;2.50;99.90;;;;;;5077057;28;20111;-64
2022/01/08 07:12:59;;;;;;;24.55;13.90;;;2.50;99.90;;;;;;5059719;28;20024;-64
2022/01/08 07:15:24;;;;;;;26.67;13.23;;;2.50;99.90;;;;;;5077051;28;20048;-64
2022/01/08 07:17:50;;;;;;;24.05;13.10;;;2.50;99.90;;;;;;5076967;28;20036;-64
2022/01/08 07:20:16;;;;;;;24.40;13.50;;;2.50;99.90;;;;;;5076999;28;20391;-64
2022/01/08 07:22:42;;;;;;;25.52;12.80;;;2.50;99.90;;;;;;5076937;28;20423;-64
2022/01/08 07:25:09;;;;;;;26.55;13.02;;;2.50;99.90;;;;;;5076098;28;20040;-63
2022/01/08 07:27:36;;;;;;;22.10;12.57;;;2.50;99.90;;;;;;5076861;28;20025;-64
2022/01/08 07:30:06;;;;;;;24.02;14.13;;;2.50;99.90;;;;;;5076868;28;20113;-63
2022/01/08 07:32:32;;;;;;;24.30;13.27;;;2.60;99.90;;;;;;5075989;28;20024;-63
2022/01/08 07:34:58;;;;;;;25.02;12.70;;;2.60;99.90;;;;;;5077330;28;20032;-64
2022/01/08 07:37:24;;;;;;;25.50;13.07;;;2.60;99.90;;;;;;5059160;28;20056;-64
2022/01/08 07:39:50;;;;;;;22.90;12.93;;;2.60;99.90;;;;;;5076018;28;20039;-63
2022/01/08 07:42:16;;;;;;;28.70;12.63;;;2.60;99.90;;;;;;5077269;28;20029;-64
2022/01/08 07:44:42;;;;;;;27.38;12.85;;;2.70;99.90;;;;;;5076682;28;20029;-64
2022/01/08 07:47:08;;;;;;;26.00;12.43;;;2.70;99.90;;;;;;5043080;28;20346;-63
2022/01/08 07:49:34;;;;;;;19.90;11.52;;;2.60;99.90;;;;;;5075960;28;20032;-63
2022/01/08 07:52:00;;;;;;;20.38;10.95;;;2.70;99.90;;;;;;5076576;28;20032;-63
2022/01/08 07:54:26;;;;;;;23.48;11.50;;;2.80;99.90;;;;;;5076344;28;20456;-63
2022/01/08 07:56:51;;;;;;;21.80;11.48;;;2.80;99.90;;;;;;5075965;28;20039;-65
2022/01/08 07:59:17;;;;;;;22.70;10.52;;;2.80;99.90;;;;;;5076463;28;20028;-63
2022/01/08 08:01:43;;;;;;;22.90;11.27;;;2.80;99.90;;;;;;5075768;28;20029;-64
2022/01/08 08:04:09;;;;;;;20.17;10.77;;;2.80;99.90;;;;;;5076204;28;20253;-64
2022/01/08 08:06:47;;;;;;;16.85;9.82;;;2.80;99.90;;;;;;5079406;28;20052;-64
2022/01/08 08:09:14;;;;;;;25.27;9.75;;;2.80;99.90;;;;;;5079672;28;20089;-64
2022/01/08 08:11:40;;;;;;;18.50;9.68;;;2.80;99.90;;;;;;5080384;28;20020;-64
2022/01/08 08:14:06;;;;;;;21.58;10.63;;;2.80;99.90;;;;;;5080263;28;20170;-64
2022/01/08 08:16:32;;;;;;;17.92;8.60;;;2.90;99.90;;;;;;5080246;28;20082;-64
2022/01/08 08:18:58;;;;;;;22.25;9.65;;;2.90;99.90;;;;;;5063055;28;20044;-64
2022/01/08 08:21:24;;;;;;;16.23;8.73;;;3.00;99.90;;;;;;5080165;28;20310;-63
2022/01/08 08:23:50;;;;;;;16.33;8.82;;;2.90;99.90;;;;;;5079194;28;20391;-64
2022/01/08 08:26:16;;;;;;;17.33;8.27;;;2.90;99.90;;;;;;5080073;28;20414;-63
2022/01/08 08:28:42;;;;;;;19.67;9.38;;;2.90;99.90;;;;;;5079996;28;20407;-63
2022/01/08 08:31:09;;;;;;;18.40;8.98;;;2.90;99.90;;;;;;5079947;28;20032;-63
2022/01/08 08:33:35;;;;;;;16.15;8.88;;;2.90;99.90;;;;;;5079132;28;20048;-64
2022/01/08 08:36:01;;;;;;;14.10;7.85;;;3.00;99.90;;;;;;5079256;28;20040;-63
2022/01/08 08:38:27;;;;;;;17.13;6.78;;;3.00;99.90;;;;;;5079575;28;20049;-64
2022/01/08 08:40:54;;;;;;;12.50;7.15;;;3.00;99.90;;;;;;5079756;28;20025;-62
2022/01/08 08:43:20;;;;;;;14.27;7.45;;;3.00;99.90;;;;;;5078883;28;20033;-64
2022/01/08 08:45:46;;;;;;;19.13;7.30;;;3.10;99.90;;;;;;5079619;28;20035;-63
2022/01/08 08:48:12;;;;;;;11.88;6.60;;;3.10;99.90;;;;;;5079639;28;20308;-63
2022/01/08 08:50:38;;;;;;;10.57;6.40;;;3.20;99.90;;;;;;5078865;28;20043;-63
2022/01/08 08:53:04;;;;;;;15.48;6.82;;;3.20;99.90;;;;;;5078817;28;20040;-64
2022/01/08 08:55:30;;;;;;;14.57;5.60;;;3.30;99.90;;;;;;5079364;28;20024;-62
2022/01/08 08:57:56;;;;;;;11.15;5.43;;;3.30;99.90;;;;;;5078603;28;20040;-63
2022/01/08 09:00:22;;;;;;;11.23;5.97;;;3.40;99.90;;;;;;5079241;28;20392;-64
2022/01/08 09:02:47;;;;;;;11.35;5.80;;;3.30;99.90;;;;;;5079326;28;20123;-62
2022/01/08 09:05:13;;;;;;;16.05;5.97;;;3.40;99.90;;;;;;5079203;28;20294;-64
2022/01/08 09:07:39;;;;;;;12.35;6.03;;;3.50;99.90;;;;;;5078486;28;20025;-60
2022/01/08 09:10:09;;;;;;;11.52;5.63;;;3.50;99.90;;;;;;5079244;28;20024;-62
2022/01/08 09:12:36;;;;;;;10.55;5.75;;;3.40;99.90;;;;;;5078356;28;20048;-65
2022/01/08 09:15:02;;;;;;;12.18;5.80;;;3.40;99.90;;;;;;5078221;28;20028;-63
2022/01/08 09:17:28;;;;;;;13.50;6.05;;;3.40;99.90;;;;;;5079047;28;20048;-64
2022/01/08 09:19:54;;;;;;;12.10;5.65;;;3.40;99.90;;;;;;5078751;28;20024;-64
2022/01/08 09:22:20;;;;;;;12.63;6.38;;;3.40;99.90;;;;;;5061677;28;20093;-65
2022/01/08 09:24:46;;;;;;;9.43;5.68;;;3.50;99.90;;;;;;5078879;28;20135;-62
2022/01/08 09:27:12;;;;;;;12.40;5.25;;;3.60;99.90;;;;;;5078725;28;20281;-64
2022/01/08 09:29:38;;;;;;;13.00;5.50;;;3.60;99.90;;;;;;5078903;28;20102;-64
2022/01/08 09:32:08;;;;;;;10.05;4.85;;;3.70;99.90;;;;;;5078050;28;20053;-65
2022/01/08 09:34:36;;;;;;;10.02;4.90;;;3.70;99.90;;;;;;5078047;28;20040;-64
2022/01/08 09:37:04;;;;;;;11.38;4.68;;;3.70;99.90;;;;;;5077844;28;20059;-64
2022/01/08 09:39:30;;;;;;;9.80;4.50;;;3.80;99.90;;;;;;5078674;28;20044;-63
2022/01/08 09:41:56;;;;;;;10.05;4.38;;;3.90;99.90;;;;;;5077844;28;20044;-64
2022/01/08 09:44:22;;;;;;;12.00;3.95;;;3.90;99.90;;;;;;5077644;28;20307;-64
2022/01/08 09:46:48;;;;;;;9.07;4.20;;;3.90;99.90;;;;;;5078454;28;20081;-64
2022/01/08 09:49:13;;;;;;;7.03;3.40;;;3.90;99.90;;;;;;5078339;28;20036;-65
2022/01/08 09:51:39;;;;;;;7.80;3.75;;;3.90;99.90;;;;;;5061265;28;20123;-65
2022/01/08 09:54:05;;;;;;;5.50;3.60;;;4.00;99.90;;;;;;5077614;28;20307;-63
2022/01/08 09:56:32;;;;;;;10.02;3.50;;;4.10;99.90;;;;;;5078442;28;20040;-63
2022/01/08 09:59:00;;;;;;;9.68;3.25;;;4.20;99.90;;;;;;5061131;28;20035;-63
2022/01/08 10:01:28;;;;;;;7.10;3.20;;;4.10;99.90;;;;;;5077331;28;20098;-63
2022/01/08 10:03:54;;;;;;;7.40;3.60;;;4.10;99.90;;;;;;5078112;28;20039;-62
2022/01/08 10:06:25;;;;;;;7.18;3.80;;;4.10;99.90;;;;;;5078041;28;20230;-61
2022/01/08 10:08:52;;;;;;;7.47;3.30;;;4.10;99.90;;;;;;5077324;28;20028;-63
2022/01/08 10:11:19;;;;;;;7.93;3.67;;;4.20;99.90;;;;;;5078044;28;20024;-63
2022/01/08 10:13:48;;;;;;;8.80;3.20;;;4.30;99.90;;;;;;5078046;28;20029;-63
2022/01/08 10:19:02;;;;;;;10.05;3.30;;;4.30;99.90;;;;;;5077884;28;20024;-63
2022/01/08 10:21:32;;;;;;;6.55;3.28;;;4.30;99.90;;;;;;5077027;28;20052;-60
2022/01/08 10:24:02;;;;;;;9.57;3.35;;;4.40;99.90;;;;;;5077687;28;20352;-60
2022/01/08 10:26:34;;;;;;;6.38;3.22;;;4.40;99.90;;;;;;5077704;28;20036;-60
2022/01/08 10:29:20;;;;;;;4.63;3.20;;;4.40;99.90;;;;;;5076201;28;20029;-61
2022/01/08 10:31:50;;;;;;;7.00;3.17;;;4.40;99.90;;;;;;5077642;28;20292;-62
2022/01/08 10:34:28;;;;;;;10.55;3.63;;;4.60;99.90;;;;;;5077406;28;20068;-63
2022/01/08 10:37:00;;;;;;;4.75;3.13;;;4.60;99.90;;;;;;5076676;28;20053;-62
2022/01/08 10:39:34;;;;;;;;;;;4.50;99.90;;;;;;5077116;28;20032;-63
2022/01/08 10:42:10;;;;;;;7.43;3.00;;;4.50;99.90;;;;;;5077383;28;19962;-62
2022/01/08 10:44:37;;;;;;;7.63;2.97;;;4.50;99.90;;;;;;5077258;28;20029;-62
2022/01/08 10:47:05;;;;;;;7.28;3.17;;;4.60;99.90;;;;;;5077190;28;20028;-61
2022/01/08 10:49:44;;;;;;;4.25;2.83;;;4.50;99.90;;;;;;5077202;28;20414;-60
2022/01/08 10:52:18;;;;;;;5.20;2.97;;;4.60;99.90;;;;;;5077147;28;20016;-63
2022/01/08 10:54:56;;;;;;;5.78;2.85;;;4.60;99.90;;;;;;5076955;28;20285;-61
2022/01/08 10:57:35;;;;;;;5.55;2.92;;;4.60;99.90;;;;;;5077244;28;20056;-62
2022/01/08 11:00:11;;;;;;;6.10;2.90;;;4.60;99.90;;;;;;5077114;28;20033;-62
2022/01/08 11:02:38;;;;;;;6.35;2.83;;;4.60;99.90;;;;;;5077144;28;20039;-61
2022/01/08 11:05:10;;;;;;;6.60;3.03;;;4.70;99.90;;;;;;5076910;28;20040;-62
2022/01/08 11:07:39;;;;;;;5.18;2.58;;;4.70;99.90;;;;;;5076231;28;20020;-62
2022/01/08 11:10:15;;;;;;;7.70;2.88;;;4.60;99.90;;;;;;5076910;28;20028;-62
2022/01/08 11:12:43;;;;;;;5.38;2.72;;;4.70;99.90;;;;;;5076934;28;20389;-62
2022/01/08 11:17:51;;;;;;;9.53;3.00;;;4.60;99.90;;;;;;5076147;28;20047;-64
2022/01/08 11:20:20;;;;;;;7.60;3.10;;;4.60;99.90;;;;;;5077445;28;20275;-63
2022/01/08 11:22:48;;;;;;;8.23;3.50;;;4.50;99.90;;;;;;5076900;28;20105;-63
2022/01/08 11:25:23;;;;;;;5.00;3.10;;;4.50;99.90;;;;;;5076023;28;20147;-62
2022/01/08 11:28:11;;;;;;;4.20;2.47;;;4.40;99.90;;;;;;5076177;28;20037;-63
2022/01/08 11:30:38;;;;;;;5.53;3.00;;;4.50;99.90;;;;;;5076771;28;20028;-62
2022/01/08 11:33:16;;;;;;;10.68;3.53;;;4.40;99.90;;;;;;5059357;28;20024;-61
2022/01/08 11:35:44;;;;;;;5.57;3.05;;;4.40;99.90;;;;;;5077232;28;20035;-62
2022/01/08 11:38:13;;;;;;;7.63;3.17;;;4.40;99.90;;;;;;5076544;28;20374;-63
2022/01/08 11:40:41;;;;;;;7.07;2.70;;;4.50;99.90;;;;;;5080701;28;20024;-61
2022/01/08 11:43:09;;;;;;;7.38;3.17;;;4.50;99.90;;;;;;5080812;28;20093;-63
2022/01/08 11:45:43;;;;;;;5.75;3.20;;;4.50;99.90;;;;;;5080696;28;20119;-62
2022/01/08 11:48:11;;;;;;;6.53;2.78;;;4.50;99.90;;;;;;5080975;28;20082;-62
2022/01/08 11:50:38;;;;;;;7.28;2.97;;;4.40;99.90;;;;;;5080612;28;20020;-61
2022/01/08 11:53:16;;;;;;;11.02;3.45;;;4.40;99.90;;;;;;5080614;28;20115;-61
2022/01/08 11:55:43;;;;;;;5.38;2.78;;;4.40;99.90;;;;;;5079770;28;20043;-61
2022/01/08 11:58:26;;;;;;;7.38;3.13;;;4.50;99.90;;;;;;5080478;28;20043;-61
2022/01/08 12:01:13;;;;;;;3.50;2.50;;;4.50;99.90;;;;;;5080094;28;20025;-61
2022/01/08 12:03:47;;;;;;;7.38;2.88;;;4.50;99.90;;;;;;5080343;28;20082;-60
2022/01/08 12:09:29;;;;;;;7.13;2.88;;;4.40;99.90;;;;;;5080331;28;20028;-62
2022/01/08 12:12:00;;;;;;;6.38;2.88;;;4.50;99.90;;;;;;5080564;28;20157;-61
2022/01/08 12:14:46;;;;;;;5.57;2.40;;;4.50;99.90;;;;;;5079493;28;20282;-61
2022/01/08 12:17:18;;;;;;;5.22;2.75;;;4.50;99.90;;;;;;5080162;28;20044;-61
2022/01/08 12:19:52;;;;;;;8.95;2.95;;;4.40;99.90;;;;;;5080170;28;20052;-61
2022/01/08 12:22:21;;;;;;;7.25;2.88;;;4.50;99.90;;;;;;5079629;28;20032;-61
2022/01/08 12:24:55;;;;;;;5.55;2.42;;;4.60;99.90;;;;;;5079910;28;20032;-61
2022/01/08 12:27:33;;;;;;;6.00;2.67;;;4.60;99.90;;;;;;5079917;28;20056;-61
2022/01/08 12:30:01;;;;;;;6.63;2.60;;;4.60;99.90;;;;;;5079203;28;20389;-61
2022/01/08 12:32:29;;;;;;;4.97;2.90;;;4.60;99.90;;;;;;5062519;28;20012;-63
2022/01/08 12:35:15;;;;;;;7.63;3.20;;;4.50;99.90;;;;;;5079789;28;20115;-61
2022/01/08 12:37:44;;;;;;;7.82;2.75;;;4.50;99.90;;;;;;5079457;28;20054;-62
2022/01/08 12:40:12;;;;;;;6.85;2.72;;;4.50;99.90;;;;;;5079718;28;20032;-58
2022/01/08 12:42:41;;;;;;;6.10;3.05;;;4.60;99.90;;;;;;5079941;28;20407;-60
2022/01/08 12:45:20;;;;;;;6.85;3.00;;;4.50;99.90;;;;;;5079634;28;20080;-60
2022/01/08 12:48:00;;;;;;;4.63;3.00;;;4.50;99.90;;;;;;5080156;28;20027;-63
2022/01/08 12:50:35;;;;;;;6.70;3.08;;;4.50;99.90;;;;;;5078945;28;20025;-60
2022/01/08 12:53:11;;;;;;;4.88;3.20;;;4.50;99.90;;;;;;5079564;28;20024;-61
2022/01/08 12:55:42;;;;;;;5.55;3.55;;;4.50;99.90;;;;;;5078773;28;20301;-63
2022/01/08 12:58:30;;;;;;;4.82;3.03;;;4.50;99.90;;;;;;5079723;28;20032;-61
2022/01/08 13:00:57;;;;;;;4.25;3.35;;;4.50;99.90;;;;;;5079028;28;20089;-59
2022/01/08 13:03:31;;;;;;;5.82;3.70;;;4.50;99.90;;;;;;5079297;28;20036;-60
2022/01/08 13:06:03;;;;;;;6.43;3.85;;;4.50;99.90;;;;;;5079360;28;20380;-60
2022/01/08 13:08:31;;;;;;;4.68;3.40;;;4.60;99.90;;;;;;5078617;28;20032;-61
2022/01/08 13:11:02;;;;;;;5.63;2.90;;;4.70;99.90;;;;;;5079244;28;20376;-59
2022/01/08 13:13:42;;;;;;;5.63;3.35;;;4.70;99.90;;;;;;5079396;28;20036;-61
2022/01/08 13:16:38;;;;;;;8.18;3.97;;;4.60;99.90;;;;;;5079166;28;20035;-61
2022/01/08 13:19:19;;;;;;;11.18;6.65;;;4.60;99.90;;;;;;5073527;28;20043;-60
2022/01/08 13:21:51;;;;;;;7.90;3.85;;;4.70;99.90;;;;;;5078254;28;20044;-60
2022/01/08 13:24:18;;;;;;;7.10;3.33;;;4.70;99.90;;;;;;5078205;28;20028;-59